createdAt,value
2022-11-01T00:02:02.609Z,48.47
2022-11-01T00:04:30.671Z,48.30
2022-11-01T00:06:58.524Z,48.47
2022-11-01T00:09:27.763Z,50.27
2022-11-01T00:11:55.590Z,48.90
2022-11-01T00:14:25.367Z,56.00
2022-11-01T00:16:53.007Z,52.53
2022-11-01T00:19:20.903Z,46.63
2022-11-01T00:21:48.783Z,64.27
2022-11-01T00:24:16.727Z,50.40
2022-11-01T00:26:46.098Z,46.77
2022-11-01T00:29:14.023Z,50.10
2022-11-01T00:31:41.949Z,40.40
2022-11-01T00:34:09.973Z,49.27
2022-11-01T00:36:37.878Z,50.13
2022-11-01T00:39:06.028Z,46.97
2022-11-01T00:41:33.833Z,43.93
2022-11-01T00:44:03.050Z,55.90
2022-11-01T00:46:31.126Z,50.73
2022-11-01T00:48:59.234Z,46.60
2022-11-01T00:51:27.312Z,51.83
2022-11-01T00:53:55.102Z,54.77
2022-11-01T00:56:22.994Z,48.37
2022-11-01T00:58:51.014Z,54.17
2022-11-01T01:01:20.328Z,45.37
2022-11-01T01:03:48.173Z,48.73
2022-11-01T01:06:16.071Z,48.00
2022-11-01T01:08:43.999Z,45.97
2022-11-01T01:11:12.341Z,48.00
2022-11-01T01:13:40.237Z,49.40
2022-11-01T01:16:10.345Z,50.40
2022-11-01T01:18:39.771Z,44.97
2022-11-01T01:21:07.666Z,45.53
2022-11-01T01:23:36.534Z,47.83
2022-11-01T01:26:07.161Z,44.10
2022-11-01T01:28:37.624Z,47.17
2022-11-01T01:31:10.615Z,50.70
2022-11-01T01:33:39.976Z,48.47
2022-11-01T01:36:09.471Z,49.30
2022-11-01T01:38:37.441Z,48.77
2022-11-01T01:41:19.644Z,56.43
2022-11-01T01:43:48.188Z,50.93
2022-11-01T01:46:15.968Z,47.70
2022-11-01T01:48:49.139Z,43.80
2022-11-01T01:51:21.265Z,49.70
2022-11-01T01:53:52.790Z,40.90
2022-11-01T01:56:24.370Z,46.40
2022-11-01T01:58:57.936Z,49.13
2022-11-01T02:01:26.853Z,50.20
2022-11-01T02:03:56.837Z,46.13
2022-11-01T02:06:26.375Z,43.80
2022-11-01T02:08:57.504Z,47.17
2022-11-01T02:11:25.598Z,48.77
2022-11-01T02:13:53.920Z,53.50
2022-11-01T02:16:35.847Z,52.93
2022-11-01T02:19:32.319Z,54.67
2022-11-01T02:22:08.604Z,50.20
2022-11-01T02:25:11.282Z,42.40
2022-11-01T02:28:14.630Z,44.60
2022-11-01T02:30:50.662Z,48.40
2022-11-01T02:33:29.600Z,47.43
2022-11-01T02:36:07.118Z,49.23
2022-11-01T02:38:41.320Z,49.43
2022-11-01T02:41:13.385Z,46.23
2022-11-01T02:43:47.986Z,47.07
2022-11-01T02:46:35.136Z,49.10
2022-11-01T02:49:04.901Z,52.83
2022-11-01T02:51:34.555Z,45.40
2022-11-01T02:54:02.939Z,44.67
2022-11-01T02:56:32.241Z,45.20
2022-11-01T02:59:00.856Z,47.07
2022-11-01T03:01:31.798Z,50.03
2022-11-01T03:04:04.921Z,52.73
2022-11-01T03:06:37.577Z,49.50
2022-11-01T03:09:08.519Z,57.33
2022-11-01T03:11:45.164Z,47.60
2022-11-01T03:14:24.425Z,47.77
2022-11-01T03:16:59.535Z,48.57
2022-11-01T03:19:37.176Z,50.67
2022-11-01T03:22:11.122Z,50.90
2022-11-01T03:24:46.658Z,44.43
2022-11-01T03:27:21.212Z,47.43
2022-11-01T03:29:56.939Z,48.27
2022-11-01T03:32:28.568Z,53.60
2022-11-01T03:34:59.530Z,47.07
2022-11-01T03:37:29.117Z,43.13
2022-11-01T03:40:05.101Z,44.13
2022-11-01T03:42:34.295Z,50.93
2022-11-01T03:45:09.400Z,42.37
2022-11-01T03:47:37.714Z,47.67
2022-11-01T03:50:17.812Z,55.47
2022-11-01T03:52:46.019Z,48.30
2022-11-01T03:55:20.082Z,57.07
2022-11-01T03:57:48.463Z,49.60
2022-11-01T04:00:18.148Z,47.87
2022-11-01T04:02:46.005Z,44.47
2022-11-01T04:05:13.952Z,53.63
2022-11-01T04:07:43.423Z,50.20
2022-11-01T04:10:12.339Z,49.10
2022-11-01T04:12:40.343Z,48.53
2022-11-01T04:15:26.539Z,54.50
2022-11-01T04:18:22.565Z,52.17
2022-11-01T04:20:50.585Z,48.27
2022-11-01T04:23:19.955Z,52.77
2022-11-01T04:25:48.146Z,56.60
2022-11-01T04:28:16.418Z,57.27
2022-11-01T04:30:44.902Z,61.53
2022-11-01T04:33:12.808Z,56.90
2022-11-01T04:35:40.903Z,50.40
2022-11-01T04:38:10.020Z,52.37
2022-11-01T04:40:40.139Z,56.57
2022-11-01T04:43:07.953Z,52.50
2022-11-01T04:45:35.788Z,53.40
2022-11-01T04:48:05.662Z,51.73
2022-11-01T04:50:33.925Z,50.17
2022-11-01T04:53:02.399Z,55.80
2022-11-01T04:55:30.916Z,56.50
2022-11-01T04:58:00.193Z,53.87
2022-11-01T05:00:28.556Z,51.87
2022-11-01T05:03:02.572Z,54.50
2022-11-01T05:05:30.780Z,54.13
2022-11-01T05:08:03.140Z,54.20
2022-11-01T05:10:31.951Z,58.20
2022-11-01T05:13:01.595Z,47.40
2022-11-01T05:15:29.677Z,50.03
2022-11-01T05:17:57.646Z,51.33
2022-11-01T05:20:26.079Z,52.67
2022-11-01T05:22:53.945Z,49.37
2022-11-01T05:25:21.881Z,53.13
2022-11-01T05:27:49.683Z,49.60
2022-11-01T05:30:19.138Z,54.60
2022-11-01T05:32:47.163Z,52.30
2022-11-01T05:35:15.160Z,53.43
2022-11-01T05:37:43.001Z,50.17
2022-11-01T05:40:12.089Z,58.20
2022-11-01T05:42:40.294Z,62.67
2022-11-01T05:45:10.149Z,54.47
2022-11-01T05:47:40.399Z,49.90
2022-11-01T05:50:09.781Z,48.40
2022-11-01T05:52:37.936Z,49.93
2022-11-01T05:55:06.903Z,51.00
2022-11-01T05:57:37.998Z,48.10
2022-11-01T06:00:08.930Z,52.07
2022-11-01T06:02:36.786Z,55.53
2022-11-01T06:05:06.645Z,54.17
2022-11-01T06:07:36.633Z,50.40
2022-11-01T06:10:05.472Z,54.00
2022-11-01T06:12:33.414Z,50.23
2022-11-01T06:15:01.548Z,52.17
2022-11-01T06:17:29.330Z,54.53
2022-11-01T06:19:57.195Z,51.00
2022-11-01T06:22:26.688Z,50.43
2022-11-01T06:25:04.099Z,52.63
2022-11-01T06:27:32.588Z,54.60
2022-11-01T06:30:02.867Z,51.63
2022-11-01T06:32:30.704Z,54.67
2022-11-01T06:34:58.498Z,57.83
2022-11-01T06:37:28.143Z,48.67
2022-11-01T06:39:56.296Z,51.60
2022-11-01T06:42:27.101Z,52.50
2022-11-01T06:44:55.091Z,58.17
2022-11-01T06:47:23.254Z,55.37
2022-11-01T06:49:51.984Z,57.23
2022-11-01T06:52:22.276Z,55.03
2022-11-01T06:54:51.549Z,55.53
2022-11-01T06:57:19.587Z,53.50
2022-11-01T06:59:47.620Z,54.27
2022-11-01T07:02:18.264Z,50.33
2022-11-01T07:04:48.316Z,52.87
2022-11-01T07:07:16.141Z,49.80
2022-11-01T07:09:44.434Z,51.47
2022-11-01T07:12:13.828Z,67.07
2022-11-01T07:14:41.677Z,49.30
2022-11-01T07:17:09.561Z,49.20
2022-11-01T07:19:37.584Z,49.00
2022-11-01T07:22:09.194Z,49.00
2022-11-01T07:24:37.226Z,46.13
2022-11-01T07:27:05.285Z,55.20
2022-11-01T07:29:34.748Z,54.93
2022-11-01T07:32:05.308Z,50.67
2022-11-01T07:34:33.636Z,49.33
2022-11-01T07:37:01.744Z,51.53
2022-11-01T07:39:29.720Z,46.50
2022-11-01T07:41:59.791Z,52.63
2022-11-01T07:44:27.746Z,45.63
2022-11-01T07:46:57.121Z,50.63
2022-11-01T07:49:25.209Z,42.90
2022-11-01T07:51:53.596Z,37.43
2022-11-01T07:54:21.688Z,37.50
2022-11-01T07:56:49.518Z,33.60
2022-11-01T07:59:18.013Z,29.37
2022-11-01T08:01:46.118Z,33.27
2022-11-01T08:04:17.460Z,34.93
2022-11-01T08:06:48.346Z,31.87
2022-11-01T08:09:21.946Z,35.83
2022-11-01T08:11:50.349Z,32.00
2022-11-01T08:14:18.269Z,32.50
2022-11-01T08:16:49.866Z,29.97
2022-11-01T08:19:19.113Z,27.83
2022-11-01T08:21:47.488Z,34.13
2022-11-01T08:24:33.584Z,32.17
2022-11-01T08:27:03.541Z,26.10
2022-11-01T08:29:31.474Z,28.37
2022-11-01T08:31:59.483Z,23.30
2022-11-01T08:34:30.685Z,35.83
2022-11-01T08:36:58.812Z,26.57
2022-11-01T08:39:27.682Z,24.10
2022-11-01T08:41:57.395Z,23.63
2022-11-01T08:44:25.785Z,24.10
2022-11-01T08:46:55.668Z,26.77
2022-11-01T08:49:23.674Z,21.80
2022-11-01T08:51:54.853Z,24.40
2022-11-01T08:54:22.925Z,25.97
2022-11-01T08:56:51.230Z,24.83
2022-11-01T08:59:19.400Z,20.93
2022-11-01T09:01:47.624Z,31.10
2022-11-01T09:04:18.101Z,24.50
2022-11-01T09:06:47.100Z,23.93
2022-11-01T09:09:16.719Z,21.47
2022-11-01T09:11:46.500Z,23.47
2022-11-01T09:14:16.535Z,19.17
2022-11-01T09:16:44.680Z,26.97
2022-11-01T09:19:13.117Z,17.20
2022-11-01T09:21:41.550Z,19.73
2022-11-01T09:24:09.984Z,19.83
2022-11-01T09:26:39.374Z,18.23
2022-11-01T09:29:07.634Z,20.80
2022-11-01T09:31:36.208Z,26.17
2022-11-01T09:34:04.047Z,22.30
2022-11-01T09:36:35.235Z,19.67
2022-11-01T09:39:03.023Z,25.63
2022-11-01T09:41:35.999Z,21.20
2022-11-01T09:44:07.495Z,21.30
2022-11-01T09:46:44.903Z,20.20
2022-11-01T09:49:22.259Z,18.10
2022-11-01T09:51:50.487Z,17.00
2022-11-01T09:54:23.079Z,21.03
2022-11-01T09:57:00.947Z,20.37
2022-11-01T09:59:37.283Z,21.70
2022-11-01T10:02:56.599Z,18.93
2022-11-01T10:05:36.076Z,18.50
2022-11-01T10:08:13.352Z,21.40
2022-11-01T10:10:47.139Z,18.30
2022-11-01T10:13:32.329Z,18.53
2022-11-01T10:16:06.251Z,21.63
2022-11-01T10:18:39.515Z,69.20
2022-11-01T10:21:19.160Z,21.63
2022-11-01T10:23:51.569Z,21.20
2022-11-01T10:26:22.858Z,20.43
2022-11-01T10:28:57.714Z,21.70
2022-11-01T10:31:31.032Z,17.70
2022-11-01T10:34:06.135Z,15.80
2022-11-01T10:36:39.311Z,20.47
2022-11-01T10:42:10.826Z,25.17
2022-11-01T10:44:47.633Z,21.53
2022-11-01T10:47:19.441Z,26.53
2022-11-01T10:50:07.812Z,26.57
2022-11-01T10:52:46.648Z,19.33
2022-11-01T10:56:09.123Z,15.90
2022-11-01T10:58:42.457Z,18.53
2022-11-01T11:01:14.206Z,18.23
2022-11-01T11:03:46.013Z,17.53
2022-11-01T11:06:16.576Z,19.77
2022-11-01T11:08:50.350Z,18.27
2022-11-01T11:11:20.222Z,29.77
2022-11-01T11:13:52.182Z,20.73
2022-11-01T11:16:31.295Z,23.83
2022-11-01T11:19:16.229Z,21.37
2022-11-01T11:21:46.222Z,10.67
2022-11-01T11:24:20.640Z,11.90
2022-11-01T11:26:55.753Z,15.47
2022-11-01T11:29:40.912Z,21.03
2022-11-01T11:32:17.245Z,18.77
2022-11-01T11:34:54.440Z,15.47
2022-11-01T11:37:24.850Z,15.53
2022-11-01T11:40:16.380Z,18.57
2022-11-01T11:42:46.189Z,15.37
2022-11-01T11:45:27.382Z,10.43
2022-11-01T11:47:56.963Z,9.07
2022-11-01T11:50:38.898Z,15.33
2022-11-01T11:53:17.033Z,12.60
2022-11-01T11:55:48.580Z,14.83
2022-11-01T11:58:21.702Z,8.43
2022-11-01T12:00:53.480Z,9.27
2022-11-01T12:03:22.870Z,10.23
2022-11-01T12:05:58.217Z,7.17
2022-11-01T12:08:48.664Z,10.67
2022-11-01T12:11:17.633Z,10.17
2022-11-01T12:13:47.046Z,13.10
2022-11-01T12:16:21.314Z,12.07
2022-11-01T12:18:52.324Z,11.00
2022-11-01T12:21:28.067Z,10.77
2022-11-01T12:24:02.037Z,12.60
2022-11-01T12:26:35.008Z,11.43
2022-11-01T12:29:11.255Z,9.87
2022-11-01T12:31:44.471Z,11.80
2022-11-01T12:34:19.315Z,10.37
2022-11-01T12:36:55.453Z,14.13
2022-11-01T12:39:42.488Z,14.70
2022-11-01T12:42:15.949Z,10.10
2022-11-01T12:44:51.929Z,13.20
2022-11-01T12:47:26.762Z,14.47
2022-11-01T12:50:00.040Z,8.03
2022-11-01T12:52:40.651Z,11.43
2022-11-01T12:55:20.771Z,14.97
2022-11-01T12:57:52.362Z,12.60
2022-11-01T13:00:21.561Z,14.67
2022-11-01T13:03:04.970Z,12.87
2022-11-01T13:05:48.573Z,11.30
2022-11-01T13:08:28.171Z,10.60
2022-11-01T13:11:05.030Z,12.20
2022-11-01T13:13:38.549Z,9.33
2022-11-01T13:16:13.739Z,12.73
2022-11-01T13:18:51.940Z,10.83
2022-11-01T13:21:29.384Z,9.33
2022-11-01T13:24:13.902Z,12.37
2022-11-01T13:26:47.989Z,11.67
2022-11-01T13:29:20.090Z,11.57
2022-11-01T13:32:01.992Z,12.23
2022-11-01T13:34:49.833Z,15.03
2022-11-01T13:37:28.337Z,10.50
2022-11-01T13:40:12.987Z,12.10
2022-11-01T13:42:44.953Z,12.60
2022-11-01T13:45:38.866Z,10.10
2022-11-01T13:48:22.254Z,11.70
2022-11-01T13:51:12.797Z,11.17
2022-11-01T13:53:46.423Z,12.00
2022-11-01T13:56:27.349Z,9.50
2022-11-01T13:58:56.073Z,7.27
2022-11-01T14:01:32.096Z,10.10
2022-11-01T14:04:45.769Z,13.17
2022-11-01T14:07:17.489Z,12.23
2022-11-01T14:09:49.644Z,10.67
2022-11-01T14:12:38.024Z,13.57
2022-11-01T14:15:27.486Z,15.97
2022-11-01T14:18:10.227Z,18.20
2022-11-01T14:20:45.001Z,9.87
2022-11-01T14:23:55.746Z,10.87
2022-11-01T14:26:51.211Z,15.70
2022-11-01T14:29:20.679Z,19.43
2022-11-01T14:31:52.791Z,14.87
2022-11-01T14:34:33.160Z,15.40
2022-11-01T14:37:10.886Z,14.60
2022-11-01T14:39:44.698Z,12.00
2022-11-01T14:42:16.924Z,16.70
2022-11-01T14:44:51.396Z,14.47
2022-11-01T14:47:36.823Z,25.13
2022-11-01T14:50:18.172Z,15.97
2022-11-01T14:52:52.597Z,15.97
2022-11-01T14:55:25.962Z,17.33
2022-11-01T14:58:08.395Z,12.50
2022-11-01T15:00:38.493Z,20.13
2022-11-01T15:03:08.646Z,16.37
2022-11-01T15:05:44.838Z,20.27
2022-11-01T15:08:26.993Z,19.77
2022-11-01T15:10:57.572Z,24.33
2022-11-01T15:13:28.456Z,31.90
2022-11-01T15:16:12.240Z,24.73
2022-11-01T15:18:47.938Z,31.67
2022-11-01T15:21:22.044Z,21.30
2022-11-01T15:23:55.722Z,18.23
2022-11-01T15:26:28.123Z,27.47
2022-11-01T15:28:59.168Z,17.33
2022-11-01T15:31:29.234Z,25.80
2022-11-01T15:33:59.305Z,24.53
2022-11-01T15:36:33.872Z,23.07
2022-11-01T15:39:03.579Z,25.37
2022-11-01T15:41:33.355Z,17.63
2022-11-01T15:44:03.452Z,15.60
2022-11-01T15:46:41.684Z,11.73
2022-11-01T15:49:12.082Z,17.17
2022-11-01T15:51:48.705Z,12.77
2022-11-01T15:54:29.444Z,14.73
2022-11-01T15:57:02.397Z,19.40
2022-11-01T15:59:35.693Z,18.73
2022-11-01T16:02:12.935Z,12.37
2022-11-01T16:04:45.718Z,14.53
2022-11-01T16:07:17.333Z,10.67
2022-11-01T16:09:48.803Z,33.30
2022-11-01T16:12:20.640Z,11.63
2022-11-01T16:14:53.415Z,16.90
2022-11-01T16:17:32.937Z,13.67
2022-11-01T16:20:04.737Z,13.60
2022-11-01T16:22:38.607Z,11.30
2022-11-01T16:25:20.450Z,13.47
2022-11-01T16:28:07.297Z,13.47
2022-11-01T16:30:47.186Z,13.80
2022-11-01T16:33:26.106Z,13.73
2022-11-01T16:35:56.321Z,15.47
2022-11-01T16:38:38.184Z,35.00
2022-11-01T16:41:15.325Z,17.90
2022-11-01T16:43:44.270Z,17.80
2022-11-01T16:46:12.630Z,19.40
2022-11-01T16:48:53.864Z,16.17
2022-11-01T16:51:24.990Z,14.07
2022-11-01T16:53:53.058Z,17.40
2022-11-01T16:56:41.008Z,18.20
2022-11-01T16:59:25.717Z,16.63
2022-11-01T17:01:59.872Z,13.37
2022-11-01T17:04:29.941Z,22.97
2022-11-01T17:06:59.187Z,14.67
2022-11-01T17:09:33.522Z,13.53
2022-11-01T17:12:01.488Z,17.07
2022-11-01T17:14:29.750Z,13.33
2022-11-01T17:16:57.590Z,13.40
2022-11-01T17:19:30.384Z,12.57
2022-11-01T17:22:05.141Z,20.07
2022-11-01T17:24:34.149Z,17.53
2022-11-01T17:27:05.172Z,13.20
2022-11-01T17:29:33.452Z,13.40
2022-11-01T17:32:04.160Z,13.73
2022-11-01T17:37:01.655Z,22.53
2022-11-01T17:39:30.521Z,21.07
2022-11-01T17:41:59.386Z,21.80
2022-11-01T17:44:27.758Z,23.50
2022-11-01T17:46:55.838Z,21.73
2022-11-01T17:49:25.660Z,15.23
2022-11-01T17:51:55.190Z,18.13
2022-11-01T17:56:53.608Z,16.47
2022-11-01T17:59:21.883Z,48.27
2022-11-01T18:01:50.221Z,18.57
2022-11-01T18:04:18.370Z,17.70
2022-11-01T18:06:46.296Z,25.13
2022-11-01T18:09:20.891Z,14.50
2022-11-01T18:11:59.546Z,16.50
2022-11-01T18:14:46.594Z,18.47
2022-11-01T18:17:28.712Z,12.93
2022-11-01T18:20:05.853Z,15.37
2022-11-01T18:22:43.065Z,13.97
2022-11-01T18:25:24.903Z,13.63
2022-11-01T18:28:00.456Z,18.73
2022-11-01T18:30:29.077Z,15.10
2022-11-01T18:33:03.041Z,18.67
2022-11-01T18:35:34.575Z,16.90
2022-11-01T18:38:26.191Z,17.23
2022-11-01T18:41:00.405Z,18.57
2022-11-01T18:43:32.641Z,16.87
2022-11-01T18:48:56.191Z,19.77
2022-11-01T18:51:27.843Z,19.63
2022-11-01T18:54:04.797Z,16.93
2022-11-01T18:56:37.974Z,19.73
2022-11-01T18:59:23.855Z,30.03
2022-11-01T19:01:55.638Z,21.40
2022-11-01T19:04:27.809Z,21.03
2022-11-01T19:06:58.868Z,24.00
2022-11-01T19:09:29.182Z,18.37
2022-11-01T19:12:01.432Z,17.00
2022-11-01T19:14:32.780Z,16.97
2022-11-01T19:17:00.690Z,16.83
2022-11-01T19:19:28.564Z,20.00
2022-11-01T19:22:00.367Z,18.40
2022-11-01T19:24:34.547Z,14.73
2022-11-01T19:27:03.768Z,23.90
2022-11-01T19:29:35.200Z,21.47
2022-11-01T19:32:06.525Z,16.13
2022-11-01T19:34:39.837Z,22.07
2022-11-01T19:37:20.043Z,16.00
2022-11-01T19:39:48.659Z,18.10
2022-11-01T19:42:27.439Z,18.93
2022-11-01T19:45:04.075Z,24.17
2022-11-01T19:47:39.291Z,20.97
2022-11-01T19:50:22.829Z,18.23
2022-11-01T19:52:52.318Z,18.50
2022-11-01T19:55:38.899Z,21.63
2022-11-01T19:58:42.017Z,15.77
2022-11-01T20:01:35.631Z,19.17
2022-11-01T20:04:07.729Z,17.43
2022-11-01T20:06:40.185Z,27.43
2022-11-01T20:09:14.524Z,25.73
2022-11-01T20:11:43.021Z,99.53
2022-11-01T20:14:15.671Z,18.93
2022-11-01T20:16:45.287Z,15.10
2022-11-01T20:19:16.525Z,17.43
2022-11-01T20:21:45.788Z,19.83
2022-11-01T20:24:14.238Z,18.13
2022-11-01T20:26:42.340Z,15.93
2022-11-01T20:29:10.747Z,18.37
2022-11-01T20:31:38.960Z,17.87
2022-11-01T20:34:10.275Z,20.60
2022-11-01T20:36:38.939Z,18.73
2022-11-01T20:39:09.157Z,20.93
2022-11-01T20:41:39.933Z,20.57
2022-11-01T20:44:08.004Z,18.83
2022-11-01T20:46:35.912Z,17.80
2022-11-01T20:49:18.986Z,19.10
2022-11-01T20:51:51.612Z,17.47
2022-11-01T20:54:25.787Z,18.87
2022-11-01T20:56:53.696Z,19.53
2022-11-01T20:59:21.816Z,15.73
2022-11-01T21:01:50.235Z,19.37
2022-11-01T21:04:20.605Z,22.50
2022-11-01T21:06:52.111Z,17.97
2022-11-01T21:09:35.777Z,14.40
2022-11-01T21:12:06.765Z,16.40
2022-11-01T21:14:37.944Z,57.00
2022-11-01T21:17:15.049Z,18.37
2022-11-01T21:19:43.160Z,14.63
2022-11-01T21:22:25.022Z,16.17
2022-11-01T21:24:53.076Z,17.07
2022-11-01T21:30:14.876Z,16.17
2022-11-01T21:32:45.410Z,20.00
2022-11-01T21:35:39.021Z,15.93
2022-11-01T21:38:30.025Z,15.50
2022-11-01T21:40:59.236Z,15.93
2022-11-01T21:43:31.767Z,21.60
2022-11-01T21:45:59.784Z,22.57
2022-11-01T21:48:30.742Z,17.70
2022-11-01T21:50:59.121Z,15.67
2022-11-01T21:53:29.781Z,16.73
2022-11-01T21:55:57.897Z,15.60
2022-11-01T21:58:26.088Z,14.63
2022-11-01T22:00:53.951Z,18.60
2022-11-01T22:03:21.999Z,15.00
2022-11-01T22:05:49.867Z,14.43
2022-11-01T22:08:17.619Z,15.17
2022-11-01T22:10:50.007Z,18.57
2022-11-01T22:13:17.795Z,20.83
2022-11-01T22:15:45.869Z,19.80
2022-11-01T22:18:13.655Z,14.27
2022-11-01T22:20:41.812Z,13.60
2022-11-01T22:23:09.736Z,16.10
2022-11-01T22:25:37.727Z,17.20
2022-11-01T22:28:07.264Z,14.50
2022-11-01T22:30:35.193Z,17.23
2022-11-01T22:33:03.697Z,17.80
2022-11-01T22:35:32.018Z,19.00
2022-11-01T22:38:01.230Z,13.47
2022-11-01T22:40:31.779Z,12.93
2022-11-01T22:43:01.137Z,19.97
2022-11-01T22:45:30.792Z,15.27
2022-11-01T22:47:58.904Z,14.67
2022-11-01T22:50:29.903Z,12.20
2022-11-01T22:52:57.720Z,13.77
2022-11-01T22:55:28.463Z,10.20
2022-11-01T22:58:01.005Z,13.63
2022-11-01T23:00:32.581Z,15.43
2022-11-01T23:03:03.430Z,15.37
2022-11-01T23:05:32.166Z,14.13
2022-11-01T23:08:24.699Z,11.87
2022-11-01T23:10:53.042Z,13.37
2022-11-01T23:13:44.208Z,10.80
2022-11-01T23:16:24.670Z,12.43
2022-11-01T23:18:53.659Z,13.77
2022-11-01T23:21:22.801Z,13.30
2022-11-01T23:23:51.206Z,44.37
2022-11-01T23:26:21.138Z,21.23
2022-11-01T23:28:50.749Z,16.13
2022-11-01T23:31:21.224Z,16.23
2022-11-01T23:33:50.460Z,16.30
2022-11-01T23:36:23.997Z,37.33
2022-11-01T23:38:55.513Z,24.33
2022-11-01T23:41:26.705Z,13.77
2022-11-01T23:43:57.772Z,13.00
2022-11-01T23:46:27.831Z,12.87
2022-11-01T23:49:01.642Z,13.87
2022-11-01T23:51:29.680Z,11.00
2022-11-01T23:54:00.693Z,15.13
2022-11-01T23:56:28.603Z,14.23
2022-11-01T23:59:01.508Z,11.63
